Local Weather
17097
page-template-default,page,page-id-17097,bridge-core-1.0.4,ajax_fade,page_not_loaded,,hide_top_bar_on_mobile_header,qode-child-theme-ver-1.0.0,qode-theme-ver-18.0.9,qode-theme-bridge,qode_header_in_grid,wpb-js-composer js-comp-ver-4.11.2.1,vc_responsive
 

LOCAL WEATHER

METAR & TAF for EGTK Oxford

Available data for EGTK from the past hour
OXFORD
Metar
EGTK 121920Z 36002KT 9999 FEW049 21/13 Q1025

19:20 UTC

Wind: 360° 2kt

Visibility: 9999 m

Sky: FEW 4900 ft

Temp: 21 deg C / 69.8 deg F

Dewpoint: 13 deg C / 55.4 deg F

Pressure: 1025 hPa

TAF
TAF EGTK 121653Z 1218/1221 33005KT 9999 FEW045